sensor_id;sensor_type;location;lat;lon;timestamp;P1;durP1;ratioP1;P2;durP2;ratioP2
11398;SDS011;5755;48.116;11.608;2023-12-04T00:01:35;17.40;;;11.50;;
11398;SDS011;5755;48.116;11.608;2023-12-04T00:04:01;19.73;;;11.50;;
11398;SDS011;5755;48.116;11.608;2023-12-04T00:06:28;17.60;;;11.60;;
11398;SDS011;5755;48.116;11.608;2023-12-04T00:08:55;16.50;;;10.97;;
11398;SDS011;5755;48.116;11.608;2023-12-04T00:11:23;17.30;;;11.00;;
11398;SDS011;5755;48.116;11.608;2023-12-04T00:13:50;15.27;;;10.47;;
11398;SDS011;5755;48.116;11.608;2023-12-04T00:16:17;17.37;;;11.30;;
11398;SDS011;5755;48.116;11.608;2023-12-04T00:18:44;15.67;;;11.03;;
11398;SDS011;5755;48.116;11.608;2023-12-04T00:21:12;17.80;;;10.87;;
11398;SDS011;5755;48.116;11.608;2023-12-04T00:23:39;15.07;;;10.17;;
11398;SDS011;5755;48.116;11.608;2023-12-04T00:26:06;15.83;;;10.63;;
11398;SDS011;5755;48.116;11.608;2023-12-04T00:28:35;15.33;;;10.43;;
11398;SDS011;5755;48.116;11.608;2023-12-04T00:31:03;18.87;;;10.47;;
11398;SDS011;5755;48.116;11.608;2023-12-04T00:33:30;17.37;;;10.80;;
11398;SDS011;5755;48.116;11.608;2023-12-04T00:35:57;16.17;;;10.40;;
11398;SDS011;5755;48.116;11.608;2023-12-04T00:38:24;17.10;;;10.00;;
11398;SDS011;5755;48.116;11.608;2023-12-04T00:40:51;14.27;;;9.90;;
11398;SDS011;5755;48.116;11.608;2023-12-04T00:43:17;15.17;;;9.87;;
11398;SDS011;5755;48.116;11.608;2023-12-04T00:45:46;13.70;;;9.30;;
11398;SDS011;5755;48.116;11.608;2023-12-04T00:48:12;14.60;;;9.50;;
11398;SDS011;5755;48.116;11.608;2023-12-04T00:50:39;14.97;;;9.70;;
11398;SDS011;5755;48.116;11.608;2023-12-04T00:53:06;14.60;;;9.13;;
11398;SDS011;5755;48.116;11.608;2023-12-04T00:55:33;16.30;;;9.97;;
11398;SDS011;5755;48.116;11.608;2023-12-04T00:58:00;15.03;;;9.60;;
11398;SDS011;5755;48.116;11.608;2023-12-04T01:00:27;16.83;;;9.70;;
11398;SDS011;5755;48.116;11.608;2023-12-04T01:02:55;16.07;;;9.37;;
11398;SDS011;5755;48.116;11.608;2023-12-04T01:05:22;16.13;;;9.47;;
11398;SDS011;5755;48.116;11.608;2023-12-04T01:07:49;15.33;;;9.30;;
11398;SDS011;5755;48.116;11.608;2023-12-04T01:10:16;13.73;;;8.80;;
11398;SDS011;5755;48.116;11.608;2023-12-04T01:12:43;14.20;;;9.33;;
11398;SDS011;5755;48.116;11.608;2023-12-04T01:15:09;13.93;;;9.10;;
11398;SDS011;5755;48.116;11.608;2023-12-04T01:17:36;12.37;;;8.77;;
11398;SDS011;5755;48.116;11.608;2023-12-04T01:20:05;13.33;;;8.93;;
11398;SDS011;5755;48.116;11.608;2023-12-04T01:22:33;11.70;;;7.97;;
11398;SDS011;5755;48.116;11.608;2023-12-04T01:25:00;12.43;;;8.60;;
11398;SDS011;5755;48.116;11.608;2023-12-04T01:27:28;12.93;;;8.43;;
11398;SDS011;5755;48.116;11.608;2023-12-04T01:29:55;13.40;;;8.30;;
11398;SDS011;5755;48.116;11.608;2023-12-04T01:32:21;13.07;;;8.70;;
11398;SDS011;5755;48.116;11.608;2023-12-04T01:34:48;13.23;;;8.43;;
11398;SDS011;5755;48.116;11.608;2023-12-04T01:37:17;13.03;;;8.20;;
11398;SDS011;5755;48.116;11.608;2023-12-04T01:39:43;11.47;;;7.57;;
11398;SDS011;5755;48.116;11.608;2023-12-04T01:42:10;11.67;;;7.67;;
11398;SDS011;5755;48.116;11.608;2023-12-04T01:44:37;12.40;;;7.77;;
11398;SDS011;5755;48.116;11.608;2023-12-04T01:47:04;11.90;;;7.83;;
11398;SDS011;5755;48.116;11.608;2023-12-04T01:49:32;13.10;;;8.30;;
11398;SDS011;5755;48.116;11.608;2023-12-04T01:51:59;10.70;;;7.13;;
11398;SDS011;5755;48.116;11.608;2023-12-04T01:54:27;13.93;;;8.37;;
11398;SDS011;5755;48.116;11.608;2023-12-04T01:56:55;12.73;;;7.83;;
11398;SDS011;5755;48.116;11.608;2023-12-04T01:59:22;12.33;;;6.70;;
11398;SDS011;5755;48.116;11.608;2023-12-04T02:01:49;12.40;;;7.37;;
11398;SDS011;5755;48.116;11.608;2023-12-04T02:04:16;11.97;;;6.97;;
11398;SDS011;5755;48.116;11.608;2023-12-04T02:06:43;9.73;;;6.73;;
11398;SDS011;5755;48.116;11.608;2023-12-04T02:09:10;10.93;;;7.30;;
11398;SDS011;5755;48.116;11.608;2023-12-04T02:11:40;11.03;;;7.23;;
11398;SDS011;5755;48.116;11.608;2023-12-04T02:14:07;10.60;;;7.17;;
11398;SDS011;5755;48.116;11.608;2023-12-04T02:16:34;10.47;;;7.33;;
11398;SDS011;5755;48.116;11.608;2023-12-04T02:19:06;13.67;;;7.57;;
11398;SDS011;5755;48.116;11.608;2023-12-04T02:21:34;11.13;;;7.00;;
11398;SDS011;5755;48.116;11.608;2023-12-04T02:24:02;8.80;;;6.33;;
11398;SDS011;5755;48.116;11.608;2023-12-04T02:26:31;10.30;;;7.23;;
11398;SDS011;5755;48.116;11.608;2023-12-04T02:29:02;10.80;;;6.73;;
11398;SDS011;5755;48.116;11.608;2023-12-04T02:31:33;9.93;;;6.90;;
11398;SDS011;5755;48.116;11.608;2023-12-04T02:34:03;10.60;;;6.70;;
11398;SDS011;5755;48.116;11.608;2023-12-04T02:36:32;9.47;;;6.13;;
11398;SDS011;5755;48.116;11.608;2023-12-04T02:39:01;10.00;;;6.33;;
11398;SDS011;5755;48.116;11.608;2023-12-04T02:41:29;9.40;;;6.20;;
11398;SDS011;5755;48.116;11.608;2023-12-04T02:43:56;9.23;;;6.07;;
11398;SDS011;5755;48.116;11.608;2023-12-04T02:46:23;9.63;;;5.83;;
11398;SDS011;5755;48.116;11.608;2023-12-04T02:48:50;8.80;;;5.67;;
11398;SDS011;5755;48.116;11.608;2023-12-04T02:51:17;7.77;;;5.53;;
11398;SDS011;5755;48.116;11.608;2023-12-04T02:53:43;9.03;;;5.80;;
11398;SDS011;5755;48.116;11.608;2023-12-04T02:56:12;8.77;;;6.07;;
11398;SDS011;5755;48.116;11.608;2023-12-04T02:58:39;9.20;;;5.73;;
11398;SDS011;5755;48.116;11.608;2023-12-04T03:01:06;10.00;;;5.50;;
11398;SDS011;5755;48.116;11.608;2023-12-04T03:03:33;8.70;;;5.70;;
11398;SDS011;5755;48.116;11.608;2023-12-04T03:06:00;8.67;;;5.87;;
11398;SDS011;5755;48.116;11.608;2023-12-04T03:08:26;7.90;;;5.47;;
11398;SDS011;5755;48.116;11.608;2023-12-04T03:10:53;8.90;;;5.70;;
11398;SDS011;5755;48.116;11.608;2023-12-04T03:13:21;10.60;;;6.00;;
11398;SDS011;5755;48.116;11.608;2023-12-04T03:15:48;9.53;;;6.00;;
11398;SDS011;5755;48.116;11.608;2023-12-04T03:18:15;9.40;;;5.90;;
11398;SDS011;5755;48.116;11.608;2023-12-04T03:20:42;9.33;;;5.87;;
11398;SDS011;5755;48.116;11.608;2023-12-04T03:29:34;8.60;;;6.00;;
11398;SDS011;5755;48.116;11.608;2023-12-04T03:32:01;9.37;;;6.60;;
11398;SDS011;5755;48.116;11.608;2023-12-04T03:34:28;11.40;;;7.17;;
11398;SDS011;5755;48.116;11.608;2023-12-04T03:36:55;10.50;;;6.30;;
11398;SDS011;5755;48.116;11.608;2023-12-04T03:39:22;9.07;;;6.83;;
11398;SDS011;5755;48.116;11.608;2023-12-04T03:41:49;8.87;;;6.40;;
11398;SDS011;5755;48.116;11.608;2023-12-04T03:44:15;9.37;;;6.43;;
11398;SDS011;5755;48.116;11.608;2023-12-04T03:46:44;8.93;;;6.53;;
11398;SDS011;5755;48.116;11.608;2023-12-04T03:49:11;11.43;;;6.87;;
11398;SDS011;5755;48.116;11.608;2023-12-04T03:51:37;10.50;;;7.07;;
11398;SDS011;5755;48.116;11.608;2023-12-04T03:54:04;11.57;;;6.83;;
11398;SDS011;5755;48.116;11.608;2023-12-04T03:56:31;10.20;;;7.30;;
11398;SDS011;5755;48.116;11.608;2023-12-04T03:58:58;9.23;;;6.80;;
11398;SDS011;5755;48.116;11.608;2023-12-04T04:01:25;9.90;;;7.00;;
11398;SDS011;5755;48.116;11.608;2023-12-04T04:03:54;11.53;;;7.97;;
11398;SDS011;5755;48.116;11.608;2023-12-04T04:06:20;13.07;;;8.13;;
11398;SDS011;5755;48.116;11.608;2023-12-04T04:08:47;10.23;;;7.70;;
11398;SDS011;5755;48.116;11.608;2023-12-04T04:11:14;10.90;;;7.73;;
11398;SDS011;5755;48.116;11.608;2023-12-04T04:13:41;9.77;;;7.40;;
11398;SDS011;5755;48.116;11.608;2023-12-04T04:16:12;12.33;;;7.97;;
11398;SDS011;5755;48.116;11.608;2023-12-04T04:18:40;14.10;;;9.33;;
11398;SDS011;5755;48.116;11.608;2023-12-04T04:21:09;13.30;;;9.57;;
11398;SDS011;5755;48.116;11.608;2023-12-04T04:23:36;11.63;;;8.23;;
11398;SDS011;5755;48.116;11.608;2023-12-04T04:26:03;14.10;;;9.27;;
11398;SDS011;5755;48.116;11.608;2023-12-04T04:28:30;15.17;;;9.77;;
11398;SDS011;5755;48.116;11.608;2023-12-04T04:30:57;13.83;;;9.70;;
11398;SDS011;5755;48.116;11.608;2023-12-04T04:33:24;14.03;;;8.83;;
11398;SDS011;5755;48.116;11.608;2023-12-04T04:35:51;13.03;;;8.93;;
11398;SDS011;5755;48.116;11.608;2023-12-04T04:38:20;16.87;;;9.43;;
11398;SDS011;5755;48.116;11.608;2023-12-04T04:40:47;15.60;;;8.33;;
11398;SDS011;5755;48.116;11.608;2023-12-04T04:43:17;13.27;;;8.63;;
11398;SDS011;5755;48.116;11.608;2023-12-04T04:45:44;13.70;;;7.80;;
11398;SDS011;5755;48.116;11.608;2023-12-04T04:48:11;12.67;;;8.97;;
11398;SDS011;5755;48.116;11.608;2023-12-04T04:50:38;13.33;;;9.07;;
11398;SDS011;5755;48.116;11.608;2023-12-04T04:53:05;13.50;;;8.77;;
11398;SDS011;5755;48.116;11.608;2023-12-04T04:55:33;11.57;;;8.23;;
11398;SDS011;5755;48.116;11.608;2023-12-04T04:58:00;13.20;;;9.23;;
11398;SDS011;5755;48.116;11.608;2023-12-04T05:00:27;13.97;;;9.47;;
11398;SDS011;5755;48.116;11.608;2023-12-04T05:02:54;14.93;;;10.17;;
11398;SDS011;5755;48.116;11.608;2023-12-04T05:05:21;13.47;;;9.50;;
11398;SDS011;5755;48.116;11.608;2023-12-04T05:07:48;13.73;;;9.43;;
11398;SDS011;5755;48.116;11.608;2023-12-04T05:10:15;15.90;;;10.07;;
11398;SDS011;5755;48.116;11.608;2023-12-04T05:12:43;14.50;;;9.83;;
11398;SDS011;5755;48.116;11.608;2023-12-04T05:15:10;14.60;;;9.30;;
11398;SDS011;5755;48.116;11.608;2023-12-04T05:17:37;12.97;;;9.10;;
11398;SDS011;5755;48.116;11.608;2023-12-04T05:20:05;11.60;;;8.33;;
11398;SDS011;5755;48.116;11.608;2023-12-04T05:22:32;14.77;;;8.83;;
11398;SDS011;5755;48.116;11.608;2023-12-04T05:25:00;13.53;;;8.73;;
11398;SDS011;5755;48.116;11.608;2023-12-04T05:27:27;14.90;;;9.20;;
11398;SDS011;5755;48.116;11.608;2023-12-04T05:29:55;11.87;;;8.37;;
11398;SDS011;5755;48.116;11.608;2023-12-04T05:32:22;10.83;;;7.77;;
11398;SDS011;5755;48.116;11.608;2023-12-04T05:34:49;14.57;;;8.40;;
11398;SDS011;5755;48.116;11.608;2023-12-04T05:37:16;18.13;;;8.67;;
11398;SDS011;5755;48.116;11.608;2023-12-04T05:39:43;13.73;;;9.17;;
11398;SDS011;5755;48.116;11.608;2023-12-04T05:42:10;12.93;;;8.83;;
11398;SDS011;5755;48.116;11.608;2023-12-04T05:44:37;12.10;;;8.43;;
11398;SDS011;5755;48.116;11.608;2023-12-04T05:47:05;12.20;;;7.97;;
11398;SDS011;5755;48.116;11.608;2023-12-04T05:49:33;11.57;;;8.40;;
11398;SDS011;5755;48.116;11.608;2023-12-04T05:52:16;20.47;;;15.07;;
11398;SDS011;5755;48.116;11.608;2023-12-04T05:54:43;14.40;;;9.73;;
11398;SDS011;5755;48.116;11.608;2023-12-04T05:57:10;14.77;;;9.33;;
11398;SDS011;5755;48.116;11.608;2023-12-04T05:59:37;13.10;;;9.37;;
11398;SDS011;5755;48.116;11.608;2023-12-04T06:02:06;13.53;;;8.67;;
11398;SDS011;5755;48.116;11.608;2023-12-04T06:04:36;12.63;;;8.50;;
11398;SDS011;5755;48.116;11.608;2023-12-04T06:07:03;14.93;;;8.90;;
11398;SDS011;5755;48.116;11.608;2023-12-04T06:09:30;12.53;;;8.30;;
11398;SDS011;5755;48.116;11.608;2023-12-04T06:11:56;12.50;;;8.93;;
11398;SDS011;5755;48.116;11.608;2023-12-04T06:14:23;13.47;;;8.90;;
11398;SDS011;5755;48.116;11.608;2023-12-04T06:16:50;13.73;;;9.20;;
11398;SDS011;5755;48.116;11.608;2023-12-04T06:19:18;13.27;;;8.77;;
11398;SDS011;5755;48.116;11.608;2023-12-04T06:21:45;16.90;;;8.57;;
11398;SDS011;5755;48.116;11.608;2023-12-04T06:24:12;13.60;;;9.33;;
11398;SDS011;5755;48.116;11.608;2023-12-04T06:26:40;14.53;;;8.43;;
11398;SDS011;5755;48.116;11.608;2023-12-04T06:29:08;12.30;;;8.17;;
11398;SDS011;5755;48.116;11.608;2023-12-04T06:31:36;12.00;;;8.03;;
11398;SDS011;5755;48.116;11.608;2023-12-04T06:34:03;11.70;;;7.70;;
11398;SDS011;5755;48.116;11.608;2023-12-04T06:36:42;11.97;;;8.53;;
11398;SDS011;5755;48.116;11.608;2023-12-04T06:39:10;12.20;;;7.60;;
11398;SDS011;5755;48.116;11.608;2023-12-04T06:41:38;11.33;;;7.43;;
11398;SDS011;5755;48.116;11.608;2023-12-04T06:44:06;10.77;;;7.47;;
11398;SDS011;5755;48.116;11.608;2023-12-04T06:46:33;11.53;;;8.10;;
11398;SDS011;5755;48.116;11.608;2023-12-04T06:49:03;14.77;;;7.70;;
11398;SDS011;5755;48.116;11.608;2023-12-04T06:51:31;16.37;;;10.20;;
11398;SDS011;5755;48.116;11.608;2023-12-04T06:53:59;9.93;;;6.90;;
11398;SDS011;5755;48.116;11.608;2023-12-04T06:56:27;12.97;;;7.80;;
11398;SDS011;5755;48.116;11.608;2023-12-04T06:58:54;12.63;;;7.67;;
11398;SDS011;5755;48.116;11.608;2023-12-04T07:01:21;12.37;;;7.40;;
11398;SDS011;5755;48.116;11.608;2023-12-04T07:03:48;11.37;;;7.00;;
11398;SDS011;5755;48.116;11.608;2023-12-04T07:06:15;10.37;;;7.20;;
11398;SDS011;5755;48.116;11.608;2023-12-04T07:08:41;10.00;;;7.10;;
11398;SDS011;5755;48.116;11.608;2023-12-04T07:11:11;12.50;;;7.67;;
11398;SDS011;5755;48.116;11.608;2023-12-04T07:13:40;13.13;;;7.90;;
11398;SDS011;5755;48.116;11.608;2023-12-04T07:16:07;11.20;;;7.10;;
11398;SDS011;5755;48.116;11.608;2023-12-04T07:18:35;10.10;;;7.33;;
11398;SDS011;5755;48.116;11.608;2023-12-04T07:21:02;10.83;;;7.30;;
11398;SDS011;5755;48.116;11.608;2023-12-04T07:23:29;11.10;;;7.33;;
11398;SDS011;5755;48.116;11.608;2023-12-04T07:25:56;11.17;;;7.80;;
11398;SDS011;5755;48.116;11.608;2023-12-04T07:28:24;11.27;;;7.37;;
11398;SDS011;5755;48.116;11.608;2023-12-04T07:30:51;10.20;;;6.13;;
11398;SDS011;5755;48.116;11.608;2023-12-04T07:36:07;11.60;;;6.80;;
11398;SDS011;5755;48.116;11.608;2023-12-04T07:38:35;11.90;;;6.57;;
11398;SDS011;5755;48.116;11.608;2023-12-04T07:41:02;12.90;;;6.30;;
11398;SDS011;5755;48.116;11.608;2023-12-04T07:43:33;10.57;;;6.47;;
11398;SDS011;5755;48.116;11.608;2023-12-04T07:46:00;13.30;;;7.33;;
11398;SDS011;5755;48.116;11.608;2023-12-04T07:48:27;11.10;;;7.17;;
11398;SDS011;5755;48.116;11.608;2023-12-04T07:50:54;13.93;;;8.53;;
11398;SDS011;5755;48.116;11.608;2023-12-04T07:53:21;12.57;;;8.07;;
11398;SDS011;5755;48.116;11.608;2023-12-04T07:55:48;12.77;;;8.30;;
11398;SDS011;5755;48.116;11.608;2023-12-04T07:58:16;14.07;;;8.47;;
11398;SDS011;5755;48.116;11.608;2023-12-04T08:00:44;16.87;;;9.30;;
11398;SDS011;5755;48.116;11.608;2023-12-04T08:03:11;12.53;;;7.60;;
11398;SDS011;5755;48.116;11.608;2023-12-04T08:05:38;14.00;;;8.20;;
11398;SDS011;5755;48.116;11.608;2023-12-04T08:08:05;12.13;;;7.77;;
11398;SDS011;5755;48.116;11.608;2023-12-04T08:10:32;13.40;;;8.13;;
11398;SDS011;5755;48.116;11.608;2023-12-04T08:12:59;13.20;;;8.53;;
11398;SDS011;5755;48.116;11.608;2023-12-04T08:15:25;11.50;;;7.53;;
11398;SDS011;5755;48.116;11.608;2023-12-04T08:17:54;17.23;;;8.40;;
11398;SDS011;5755;48.116;11.608;2023-12-04T08:20:22;12.10;;;7.60;;
11398;SDS011;5755;48.116;11.608;2023-12-04T08:22:49;12.00;;;8.10;;
11398;SDS011;5755;48.116;11.608;2023-12-04T08:25:16;13.70;;;8.37;;
11398;SDS011;5755;48.116;11.608;2023-12-04T08:27:43;13.07;;;8.40;;
11398;SDS011;5755;48.116;11.608;2023-12-04T08:30:10;14.03;;;8.83;;
11398;SDS011;5755;48.116;11.608;2023-12-04T08:32:37;15.60;;;9.10;;
11398;SDS011;5755;48.116;11.608;2023-12-04T08:35:06;14.03;;;9.13;;
11398;SDS011;5755;48.116;11.608;2023-12-04T08:37:33;14.60;;;9.30;;
11398;SDS011;5755;48.116;11.608;2023-12-04T08:40:00;12.40;;;7.93;;
11398;SDS011;5755;48.116;11.608;2023-12-04T08:42:28;12.00;;;7.90;;
11398;SDS011;5755;48.116;11.608;2023-12-04T08:44:54;13.23;;;7.13;;
11398;SDS011;5755;48.116;11.608;2023-12-04T08:47:21;11.60;;;6.83;;
11398;SDS011;5755;48.116;11.608;2023-12-04T08:49:48;10.07;;;7.10;;
11398;SDS011;5755;48.116;11.608;2023-12-04T08:52:16;12.53;;;6.93;;
11398;SDS011;5755;48.116;11.608;2023-12-04T08:54:43;10.63;;;7.03;;
11398;SDS011;5755;48.116;11.608;2023-12-04T08:57:10;11.73;;;7.40;;
11398;SDS011;5755;48.116;11.608;2023-12-04T08:59:37;9.67;;;7.00;;
11398;SDS011;5755;48.116;11.608;2023-12-04T09:02:04;13.10;;;8.10;;
11398;SDS011;5755;48.116;11.608;2023-12-04T09:04:31;11.90;;;7.93;;
11398;SDS011;5755;48.116;11.608;2023-12-04T09:06:58;13.97;;;8.30;;
11398;SDS011;5755;48.116;11.608;2023-12-04T09:09:26;11.50;;;7.83;;
11398;SDS011;5755;48.116;11.608;2023-12-04T09:11:53;12.53;;;8.20;;
11398;SDS011;5755;48.116;11.608;2023-12-04T09:14:20;10.73;;;7.87;;
11398;SDS011;5755;48.116;11.608;2023-12-04T09:16:47;12.90;;;7.70;;
11398;SDS011;5755;48.116;11.608;2023-12-04T09:19:14;11.63;;;7.60;;
11398;SDS011;5755;48.116;11.608;2023-12-04T09:21:40;11.40;;;7.73;;
11398;SDS011;5755;48.116;11.608;2023-12-04T09:24:09;13.10;;;7.03;;
11398;SDS011;5755;48.116;11.608;2023-12-04T09:26:37;10.87;;;7.37;;
11398;SDS011;5755;48.116;11.608;2023-12-04T09:29:04;9.43;;;6.77;;
11398;SDS011;5755;48.116;11.608;2023-12-04T09:31:31;10.80;;;7.07;;
11398;SDS011;5755;48.116;11.608;2023-12-04T09:33:57;9.47;;;6.83;;
11398;SDS011;5755;48.116;11.608;2023-12-04T09:36:24;14.13;;;7.10;;
11398;SDS011;5755;48.116;11.608;2023-12-04T09:38:51;11.37;;;7.10;;
11398;SDS011;5755;48.116;11.608;2023-12-04T09:41:18;11.73;;;7.50;;
11398;SDS011;5755;48.116;11.608;2023-12-04T09:43:47;11.87;;;7.57;;
11398;SDS011;5755;48.116;11.608;2023-12-04T09:46:14;9.87;;;6.97;;
11398;SDS011;5755;48.116;11.608;2023-12-04T09:48:43;9.63;;;6.87;;
11398;SDS011;5755;48.116;11.608;2023-12-04T09:51:10;9.23;;;6.33;;
11398;SDS011;5755;48.116;11.608;2023-12-04T09:53:36;9.77;;;6.80;;
11398;SDS011;5755;48.116;11.608;2023-12-04T09:56:04;8.80;;;6.50;;
11398;SDS011;5755;48.116;11.608;2023-12-04T09:58:34;8.50;;;6.20;;
11398;SDS011;5755;48.116;11.608;2023-12-04T10:01:05;12.10;;;7.03;;
11398;SDS011;5755;48.116;11.608;2023-12-04T10:03:33;9.63;;;6.83;;
11398;SDS011;5755;48.116;11.608;2023-12-04T10:06:01;10.77;;;6.63;;
11398;SDS011;5755;48.116;11.608;2023-12-04T10:08:29;8.87;;;6.40;;
11398;SDS011;5755;48.116;11.608;2023-12-04T10:10:56;12.17;;;7.70;;
11398;SDS011;5755;48.116;11.608;2023-12-04T10:13:24;11.50;;;7.27;;
11398;SDS011;5755;48.116;11.608;2023-12-04T10:15:50;11.87;;;8.03;;
11398;SDS011;5755;48.116;11.608;2023-12-04T10:18:25;13.17;;;7.70;;
11398;SDS011;5755;48.116;11.608;2023-12-04T10:20:54;11.83;;;7.37;;
11398;SDS011;5755;48.116;11.608;2023-12-04T10:23:21;11.60;;;6.67;;
11398;SDS011;5755;48.116;11.608;2023-12-04T10:25:48;11.83;;;7.20;;
11398;SDS011;5755;48.116;11.608;2023-12-04T10:28:16;11.20;;;7.60;;
11398;SDS011;5755;48.116;11.608;2023-12-04T10:30:43;10.03;;;7.27;;
11398;SDS011;5755;48.116;11.608;2023-12-04T10:33:11;11.97;;;7.10;;
11398;SDS011;5755;48.116;11.608;2023-12-04T10:35:41;11.07;;;7.30;;
11398;SDS011;5755;48.116;11.608;2023-12-04T10:38:09;15.23;;;7.93;;
11398;SDS011;5755;48.116;11.608;2023-12-04T10:40:36;17.30;;;7.40;;
11398;SDS011;5755;48.116;11.608;2023-12-04T10:43:10;12.43;;;7.50;;
11398;SDS011;5755;48.116;11.608;2023-12-04T10:45:39;10.43;;;7.10;;
11398;SDS011;5755;48.116;11.608;2023-12-04T10:48:06;10.10;;;6.77;;
11398;SDS011;5755;48.116;11.608;2023-12-04T10:50:34;10.07;;;7.07;;
11398;SDS011;5755;48.116;11.608;2023-12-04T10:53:04;11.43;;;8.10;;
11398;SDS011;5755;48.116;11.608;2023-12-04T10:55:32;11.63;;;7.73;;
11398;SDS011;5755;48.116;11.608;2023-12-04T10:58:00;12.27;;;7.37;;
11398;SDS011;5755;48.116;11.608;2023-12-04T11:00:29;11.63;;;7.73;;
11398;SDS011;5755;48.116;11.608;2023-12-04T11:02:59;11.67;;;8.27;;
11398;SDS011;5755;48.116;11.608;2023-12-04T11:05:30;10.03;;;7.60;;
11398;SDS011;5755;48.116;11.608;2023-12-04T11:08:00;11.60;;;8.40;;
11398;SDS011;5755;48.116;11.608;2023-12-04T11:10:31;12.33;;;9.00;;
11398;SDS011;5755;48.116;11.608;2023-12-04T11:13:00;14.77;;;10.07;;
11398;SDS011;5755;48.116;11.608;2023-12-04T11:15:33;13.73;;;10.23;;
11398;SDS011;5755;48.116;11.608;2023-12-04T11:18:04;17.67;;;10.03;;
11398;SDS011;5755;48.116;11.608;2023-12-04T11:20:35;15.23;;;10.50;;
11398;SDS011;5755;48.116;11.608;2023-12-04T11:23:07;18.40;;;10.70;;
11398;SDS011;5755;48.116;11.608;2023-12-04T11:25:36;15.00;;;10.30;;
11398;SDS011;5755;48.116;11.608;2023-12-04T11:28:04;14.67;;;10.27;;
11398;SDS011;5755;48.116;11.608;2023-12-04T11:30:32;16.33;;;10.73;;
11398;SDS011;5755;48.116;11.608;2023-12-04T11:33:00;14.33;;;10.20;;
11398;SDS011;5755;48.116;11.608;2023-12-04T11:35:27;16.87;;;10.53;;
11398;SDS011;5755;48.116;11.608;2023-12-04T11:37:54;15.13;;;9.40;;
11398;SDS011;5755;48.116;11.608;2023-12-04T11:40:22;15.10;;;10.20;;
11398;SDS011;5755;48.116;11.608;2023-12-04T11:42:50;15.93;;;9.67;;
11398;SDS011;5755;48.116;11.608;2023-12-04T11:45:18;22.37;;;9.53;;
11398;SDS011;5755;48.116;11.608;2023-12-04T11:47:50;21.00;;;9.67;;
11398;SDS011;5755;48.116;11.608;2023-12-04T11:50:18;14.93;;;9.57;;
11398;SDS011;5755;48.116;11.608;2023-12-04T11:52:46;17.27;;;10.43;;
11398;SDS011;5755;48.116;11.608;2023-12-04T11:55:15;15.93;;;9.90;;
11398;SDS011;5755;48.116;11.608;2023-12-04T11:57:43;17.87;;;9.73;;
11398;SDS011;5755;48.116;11.608;2023-12-04T12:00:19;12.73;;;9.07;;
11398;SDS011;5755;48.116;11.608;2023-12-04T12:02:49;15.60;;;9.70;;
11398;SDS011;5755;48.116;11.608;2023-12-04T12:05:29;18.60;;;9.93;;
11398;SDS011;5755;48.116;11.608;2023-12-04T12:07:59;14.60;;;10.10;;
11398;SDS011;5755;48.116;11.608;2023-12-04T12:10:27;19.60;;;9.47;;
11398;SDS011;5755;48.116;11.608;2023-12-04T12:12:55;17.77;;;10.10;;
11398;SDS011;5755;48.116;11.608;2023-12-04T12:15:24;16.30;;;9.43;;
11398;SDS011;5755;48.116;11.608;2023-12-04T12:17:51;16.80;;;9.67;;
11398;SDS011;5755;48.116;11.608;2023-12-04T12:20:18;16.63;;;9.33;;
11398;SDS011;5755;48.116;11.608;2023-12-04T12:22:45;15.50;;;9.97;;
11398;SDS011;5755;48.116;11.608;2023-12-04T12:25:13;13.53;;;9.20;;
11398;SDS011;5755;48.116;11.608;2023-12-04T12:27:40;13.63;;;9.20;;
11398;SDS011;5755;48.116;11.608;2023-12-04T12:30:08;16.53;;;9.60;;
11398;SDS011;5755;48.116;11.608;2023-12-04T12:32:36;13.67;;;8.90;;
11398;SDS011;5755;48.116;11.608;2023-12-04T12:35:03;13.50;;;9.90;;
11398;SDS011;5755;48.116;11.608;2023-12-04T12:37:32;14.50;;;10.23;;
11398;SDS011;5755;48.116;11.608;2023-12-04T12:40:00;13.70;;;10.80;;
11398;SDS011;5755;48.116;11.608;2023-12-04T12:42:29;16.30;;;10.90;;
11398;SDS011;5755;48.116;11.608;2023-12-04T12:44:59;15.40;;;10.63;;
11398;SDS011;5755;48.116;11.608;2023-12-04T12:47:27;17.57;;;10.67;;
11398;SDS011;5755;48.116;11.608;2023-12-04T12:49:56;16.10;;;10.37;;
11398;SDS011;5755;48.116;11.608;2023-12-04T12:52:23;17.87;;;8.33;;
11398;SDS011;5755;48.116;11.608;2023-12-04T12:54:51;16.30;;;9.53;;
11398;SDS011;5755;48.116;11.608;2023-12-04T12:57:18;10.93;;;8.03;;
11398;SDS011;5755;48.116;11.608;2023-12-04T12:59:46;12.67;;;8.43;;
11398;SDS011;5755;48.116;11.608;2023-12-04T13:02:15;11.07;;;7.57;;
11398;SDS011;5755;48.116;11.608;2023-12-04T13:04:43;11.57;;;6.87;;
11398;SDS011;5755;48.116;11.608;2023-12-04T13:07:12;9.97;;;6.80;;
11398;SDS011;5755;48.116;11.608;2023-12-04T13:09:39;10.43;;;7.70;;
11398;SDS011;5755;48.116;11.608;2023-12-04T13:12:06;11.00;;;7.67;;
11398;SDS011;5755;48.116;11.608;2023-12-04T13:14:35;10.10;;;7.30;;
11398;SDS011;5755;48.116;11.608;2023-12-04T13:17:02;9.57;;;7.00;;
11398;SDS011;5755;48.116;11.608;2023-12-04T13:19:29;13.67;;;7.97;;
11398;SDS011;5755;48.116;11.608;2023-12-04T13:21:59;13.80;;;9.43;;
11398;SDS011;5755;48.116;11.608;2023-12-04T13:24:27;13.40;;;9.93;;
11398;SDS011;5755;48.116;11.608;2023-12-04T13:26:55;23.40;;;12.97;;
11398;SDS011;5755;48.116;11.608;2023-12-04T13:29:22;19.03;;;13.20;;
11398;SDS011;5755;48.116;11.608;2023-12-04T13:31:49;24.77;;;13.63;;
11398;SDS011;5755;48.116;11.608;2023-12-04T13:34:16;26.23;;;14.83;;
11398;SDS011;5755;48.116;11.608;2023-12-04T13:36:43;26.43;;;15.13;;
11398;SDS011;5755;48.116;11.608;2023-12-04T13:39:10;23.87;;;14.70;;
11398;SDS011;5755;48.116;11.608;2023-12-04T13:41:46;20.83;;;13.77;;
11398;SDS011;5755;48.116;11.608;2023-12-04T13:44:31;21.70;;;13.93;;
11398;SDS011;5755;48.116;11.608;2023-12-04T13:46:58;20.80;;;13.17;;
11398;SDS011;5755;48.116;11.608;2023-12-04T13:49:25;21.90;;;14.40;;
11398;SDS011;5755;48.116;11.608;2023-12-04T13:51:52;25.00;;;13.43;;
11398;SDS011;5755;48.116;11.608;2023-12-04T13:54:19;23.23;;;13.53;;
11398;SDS011;5755;48.116;11.608;2023-12-04T13:56:54;25.83;;;13.93;;
11398;SDS011;5755;48.116;11.608;2023-12-04T13:59:22;22.37;;;13.60;;
11398;SDS011;5755;48.116;11.608;2023-12-04T14:01:51;23.33;;;14.63;;
11398;SDS011;5755;48.116;11.608;2023-12-04T14:04:21;21.83;;;14.17;;
11398;SDS011;5755;48.116;11.608;2023-12-04T14:06:49;24.73;;;15.43;;
11398;SDS011;5755;48.116;11.608;2023-12-04T14:09:15;20.87;;;13.57;;
11398;SDS011;5755;48.116;11.608;2023-12-04T14:11:42;22.50;;;14.10;;
11398;SDS011;5755;48.116;11.608;2023-12-04T14:14:12;25.33;;;13.90;;
11398;SDS011;5755;48.116;11.608;2023-12-04T14:16:39;20.73;;;14.43;;
11398;SDS011;5755;48.116;11.608;2023-12-04T14:19:07;20.60;;;13.70;;
11398;SDS011;5755;48.116;11.608;2023-12-04T14:21:34;24.20;;;13.57;;
11398;SDS011;5755;48.116;11.608;2023-12-04T14:24:01;27.40;;;14.40;;
11398;SDS011;5755;48.116;11.608;2023-12-04T14:26:27;23.30;;;13.87;;
11398;SDS011;5755;48.116;11.608;2023-12-04T14:28:54;23.97;;;14.23;;
11398;SDS011;5755;48.116;11.608;2023-12-04T14:31:24;22.13;;;14.03;;
11398;SDS011;5755;48.116;11.608;2023-12-04T14:33:51;22.73;;;13.83;;
11398;SDS011;5755;48.116;11.608;2023-12-04T14:36:18;22.10;;;13.23;;
11398;SDS011;5755;48.116;11.608;2023-12-04T14:38:45;23.77;;;14.17;;
11398;SDS011;5755;48.116;11.608;2023-12-04T14:41:14;22.90;;;14.03;;
11398;SDS011;5755;48.116;11.608;2023-12-04T14:43:41;23.70;;;15.40;;
11398;SDS011;5755;48.116;11.608;2023-12-04T14:46:08;30.17;;;15.00;;